Serian, Malaysia
Current Conditions -  °F | °C
As of 9:30 PM on Thursday 30 Oct 2014 (Local Time) from WBGG Reporting Station
Broken Clouds Broken Clouds  
Wind Chill: 79°   Ceiling: 15000
Heat Index: 82°   Visibility: 6mi
Dew Point: 73°   Wind: 3mph
Humidity: 83%   Direction: 240°WSW
Pressure: 29.83"   Gusts: NA
Location:  1.17°N, 110.56°E
Report Text: WBGG 301330Z 24003KT 9999 SCT020 BKN150 26/23 Q1010 NOSIG
Loading
Personal Weather Stations






























Interactive Weather Map
Tropical Storm Tracking
New forecast layout! Learn more

10-Day Weather Forecast

Advertisements
Track Severe Weather on mobile